Time;durP1;ratioP1;P1;durP2;ratioP2;P2;SDS_P1;SDS_P2;PMS_P1;PMS_P2;Temp;Humidity;BMP_temperature;BMP_pressure;BME280_temperature;BME280_humidity;BME280_pressure;Samples;Min_cycle;Max_cycle;Signal;HPM_P1;HPM_P2
2022/06/20 00:00:30;;;;;;;0.30;0.30;;;;;;;13.53;80.84;98271.88;4716435;30;20095;-88
2022/06/20 00:02:58;;;;;;;0.40;0.40;;;;;;;13.49;81.18;98254.53;4715115;30;20057;-89
2022/06/20 00:05:29;;;;;;;0.38;0.38;;;;;;;13.41;80.64;98237.78;4729696;30;20103;-88
2022/06/20 00:07:56;;;;;;;0.40;0.40;;;;;;;13.38;80.87;98243.78;4719599;30;20060;-88
2022/06/20 00:10:25;;;;;;;0.30;0.30;;;;;;;13.33;81.27;98260.06;4722532;30;20152;-87
2022/06/20 00:12:53;;;;;;;0.40;0.40;;;;;;;13.29;81.21;98252.78;4726695;30;20072;-86
2022/06/20 00:15:29;;;;;;;0.30;0.30;;;;;;;13.23;82.17;98257.38;4728330;30;20053;-87
2022/06/20 00:17:57;;;;;;;0.40;0.40;;;;;;;13.06;83.29;98254.22;4740577;30;20060;-89
2022/06/20 00:20:25;;;;;;;0.40;0.40;;;;;;;12.90;84.58;98254.31;4726553;30;20064;-89
2022/06/20 00:22:53;;;;;;;0.40;0.40;;;;;;;12.75;86.12;98240.84;4717509;30;20124;-88
2022/06/20 00:25:20;;;;;;;0.30;0.30;;;;;;;12.65;87.22;98230.84;4721057;30;20084;-89
2022/06/20 00:27:48;;;;;;;0.40;0.40;;;;;;;12.65;87.95;98236.25;4716160;30;20053;-90
2022/06/20 00:30:17;;;;;;;0.40;0.40;;;;;;;12.66;88.67;98223.53;4717074;30;20115;-89
2022/06/20 00:32:44;;;;;;;0.40;0.40;;;;;;;12.62;89.25;98225.19;4717318;30;20542;-92
2022/06/20 00:35:12;;;;;;;0.30;0.30;;;;;;;12.61;90.01;98221.69;4714117;30;20088;-91
2022/06/20 00:37:39;;;;;;;0.40;0.40;;;;;;;12.62;90.38;98219.78;4729467;30;20047;-90
2022/06/20 00:40:21;;;;;;;0.40;0.40;;;;;;;12.65;91.02;98211.91;4738614;30;20083;-92
2022/06/20 00:42:49;;;;;;;0.40;0.40;;;;;;;12.68;91.29;98207.84;4726526;30;20064;-88
2022/06/20 00:45:41;;;;;;;0.40;0.40;;;;;;;12.66;91.45;98201.88;4716916;30;20167;-92
2022/06/20 00:48:33;;;;;;;0.30;0.30;;;;;;;12.66;92.17;98221.66;4719274;30;20064;-90
2022/06/20 00:51:47;;;;;;;0.40;0.40;;;;;;;12.72;92.28;98220.53;4723504;30;20064;-89
2022/06/20 00:54:56;;;;;;;0.40;0.40;;;;;;;12.74;92.50;98228.41;4700030;30;20072;-90
2022/06/20 00:57:46;;;;;;;0.40;0.40;;;;;;;12.70;92.33;98230.81;4700243;30;20072;-89
2022/06/20 01:00:36;;;;;;;0.40;0.40;;;;;;;12.71;92.68;98235.19;4710342;30;20557;-89
2022/06/20 01:03:25;;;;;;;0.40;0.40;;;;;;;12.68;93.13;98241.13;4714041;30;20146;-88
2022/06/20 01:06:28;;;;;;;0.40;0.40;;;;;;;12.68;93.64;98234.91;4716916;30;20060;-90
2022/06/20 01:09:16;;;;;;;0.35;0.35;;;;;;;12.62;94.39;98226.00;4727545;30;20096;-90
2022/06/20 01:12:03;;;;;;;0.40;0.40;;;;;;;12.60;94.67;98233.56;4715322;30;20414;-90
2022/06/20 01:14:49;;;;;;;0.40;0.40;;;;;;;12.54;94.58;98240.91;4716441;30;20059;-89
2022/06/20 01:17:37;;;;;;;0.40;0.40;;;;;;;12.52;94.74;98248.50;4716693;30;20084;-90
2022/06/20 01:20:29;;;;;;;0.40;0.40;;;;;;;12.50;94.75;98247.94;4727512;30;20158;-89
2022/06/20 01:23:45;;;;;;;0.40;0.40;;;;;;;12.50;94.50;98245.25;4716201;30;20068;-89
2022/06/20 01:26:40;;;;;;;0.40;0.40;;;;;;;12.48;93.80;98249.31;4716504;30;20160;-89
2022/06/20 01:29:26;;;;;;;0.40;0.40;;;;;;;12.45;93.39;98247.16;4716318;30;20115;-90
2022/06/20 01:32:11;;;;;;;0.30;0.30;;;;;;;12.45;92.92;98247.97;4717742;30;20068;-90
2022/06/20 01:34:59;;;;;;;0.40;0.40;;;;;;;12.43;92.54;98239.34;4719362;30;20060;-89
2022/06/20 01:37:46;;;;;;;0.40;0.40;;;;;;;12.48;92.23;98252.00;4719486;30;20063;-90
2022/06/20 01:40:32;;;;;;;0.40;0.40;;;;;;;12.50;91.46;98236.31;4726619;30;20648;-89
2022/06/20 01:43:21;;;;;;;0.40;0.40;;;;;;;12.48;91.09;98219.53;4728117;30;20064;-89
2022/06/20 01:46:10;;;;;;;0.40;0.40;;;;;;;12.46;90.64;98209.00;4709584;30;20057;-89
2022/06/20 01:48:59;;;;;;;0.40;0.40;;;;;;;12.44;90.65;98197.66;4709171;30;20069;-89
2022/06/20 01:51:53;;;;;;;0.40;0.40;;;;;;;12.43;90.00;98214.16;4704700;30;20068;-89
2022/06/20 01:54:48;;;;;;;0.40;0.40;;;;;;;12.42;89.84;98216.06;4689051;30;20418;-89
2022/06/20 01:57:36;;;;;;;0.30;0.30;;;;;;;12.42;89.41;98207.13;4701293;30;20072;-90
2022/06/20 02:00:23;;;;;;;0.40;0.40;;;;;;;12.44;89.20;98223.91;4701928;30;20067;-90
2022/06/20 02:03:13;;;;;;;0.40;0.40;;;;;;;12.42;88.58;98232.28;4701555;30;20180;-89
2022/06/20 02:06:00;;;;;;;0.40;0.40;;;;;;;12.40;88.43;98220.91;4701396;30;20108;-89
2022/06/20 02:08:52;;;;;;;0.32;0.32;;;;;;;12.45;88.98;98225.50;4705293;30;20065;-89
2022/06/20 02:11:40;;;;;;;0.30;0.30;;;;;;;12.41;88.89;98221.75;4702439;30;20541;-90
2022/06/20 02:14:44;;;;;;;0.40;0.40;;;;;;;12.32;88.57;98238.53;4701735;30;20104;-91
2022/06/20 02:17:36;;;;;;;0.40;0.40;;;;;;;12.26;89.05;98246.94;4713220;30;20065;-90
2022/06/20 02:20:30;;;;;;;0.40;0.40;;;;;;;12.23;89.24;98239.34;4701859;30;20084;-90
2022/06/20 02:23:24;;;;;;;0.40;0.40;;;;;;;12.13;89.71;98257.25;4713287;30;20564;-90
2022/06/20 02:26:10;;;;;;;0.40;0.40;;;;;;;12.06;90.36;98256.72;4700836;30;20536;-90
2022/06/20 02:29:04;;;;;;;0.40;0.40;;;;;;;12.04;90.91;98255.34;4712641;30;20060;-90
2022/06/20 02:32:11;;;;;;;0.40;0.40;;;;;;;12.02;91.78;98239.41;4700184;30;20064;-89
2022/06/20 02:34:57;;;;;;;0.40;0.40;;;;;;;11.97;91.84;98219.66;4701182;30;20082;-90
2022/06/20 02:37:45;;;;;;;0.38;0.38;;;;;;;11.95;92.03;98229.94;4701687;30;20178;-90
2022/06/20 02:40:31;;;;;;;0.40;0.40;;;;;;;11.88;92.05;98212.13;4701504;30;20229;-90
2022/06/20 02:43:24;;;;;;;0.40;0.40;;;;;;;11.87;92.25;98198.84;4700927;30;20152;-89
2022/06/20 02:46:13;;;;;;;0.40;0.40;;;;;;;11.89;92.45;98202.91;4712865;30;20061;-90
2022/06/20 02:49:01;;;;;;;0.40;0.40;;;;;;;11.90;92.64;98195.59;4701667;30;20271;-89
2022/06/20 02:51:52;;;;;;;0.40;0.40;;;;;;;11.92;92.97;98196.16;4700897;30;20064;-90
2022/06/20 02:54:39;;;;;;;0.32;0.32;;;;;;;11.92;92.97;98186.16;4712767;30;20149;-90
2022/06/20 02:57:47;;;;;;;0.40;0.40;;;;;;;11.96;92.75;98194.53;4701666;30;20068;-90
2022/06/20 03:00:53;;;;;;;0.40;0.40;;;;;;;11.93;92.64;98204.00;4700657;30;20076;-90
2022/06/20 03:03:43;;;;;;;0.40;0.40;;;;;;;12.00;92.11;98206.44;4701608;30;20540;-91
2022/06/20 03:06:34;;;;;;;0.40;0.40;;;;;;;12.06;91.16;98178.28;4711737;30;20689;-89
2022/06/20 03:09:24;;;;;;;0.40;0.40;;;;;;;12.14;91.06;98183.13;4701101;30;20061;-87
2022/06/20 03:12:11;;;;;;;0.40;0.40;;;;;;;12.13;90.54;98184.22;4715951;30;20441;-89
2022/06/20 03:14:59;;;;;;;0.50;0.50;;;;;;;12.21;90.38;98200.97;4707268;30;20116;-89
2022/06/20 03:17:46;;;;;;;0.40;0.40;;;;;;;12.22;90.38;98194.47;4702534;30;20067;-90
2022/06/20 03:20:33;;;;;;;0.40;0.40;;;;;;;12.30;89.98;98181.16;4700440;30;20544;-90
2022/06/20 03:23:24;;;;;;;0.40;0.40;;;;;;;12.41;89.85;98184.69;4712055;30;20478;-90
2022/06/20 03:26:15;;;;;;;0.40;0.40;;;;;;;12.43;89.67;98206.88;4714388;30;20064;-90
2022/06/20 03:29:01;;;;;;;0.40;0.40;;;;;;;12.41;89.63;98190.09;4699740;30;20072;-89
2022/06/20 03:31:47;;;;;;;0.40;0.40;;;;;;;12.34;89.24;98171.44;4700938;30;20196;-89
2022/06/20 03:34:33;;;;;;;0.40;0.40;;;;;;;12.28;89.37;98172.53;4716240;30;20075;-89
2022/06/20 03:37:27;;;;;;;0.40;0.40;;;;;;;12.21;89.44;98184.75;4706370;30;20110;-89
2022/06/20 03:40:14;;;;;;;0.40;0.40;;;;;;;12.10;89.57;98190.19;4704610;30;20613;-90
2022/06/20 03:43:00;;;;;;;0.30;0.30;;;;;;;12.11;90.05;98188.28;4704923;30;20061;-89
2022/06/20 03:45:55;;;;;;;0.30;0.30;;;;;;;12.12;89.99;98198.00;4707600;30;20068;-90
2022/06/20 03:48:53;;;;;;;0.30;0.30;;;;;;;12.18;90.00;98193.38;4704218;30;20064;-90
2022/06/20 03:51:45;;;;;;;0.40;0.40;;;;;;;12.18;90.23;98198.78;4703850;30;20584;-86
2022/06/20 03:54:37;;;;;;;0.40;0.40;;;;;;;12.20;90.40;98208.25;4719653;30;20584;-89
2022/06/20 03:57:58;;;;;;;0.35;0.35;;;;;;;12.22;90.23;98202.59;4713377;30;20140;-89
2022/06/20 04:01:06;;;;;;;0.40;0.40;;;;;;;12.23;90.23;98212.31;4706884;30;20138;-88
2022/06/20 04:03:54;;;;;;;0.40;0.40;;;;;;;12.20;89.70;98202.03;4703348;30;20073;-90
2022/06/20 04:06:52;;;;;;;0.40;0.40;;;;;;;12.22;89.71;98202.59;4701443;30;20060;-88
2022/06/20 04:13:12;;;;;;;0.40;0.40;;;;;;;12.26;89.49;98182.81;4700065;30;20614;-89
2022/06/20 04:15:58;;;;;;;0.40;0.40;;;;;;;12.27;89.01;98192.56;4701053;30;20100;-90
2022/06/20 04:19:10;;;;;;;0.40;0.40;;;;;;;12.28;89.35;98215.84;4702625;30;20072;-89
2022/06/20 04:22:09;;;;;;;0.40;0.40;;;;;;;12.34;89.27;98203.09;4710363;30;20063;-89
2022/06/20 04:25:04;;;;;;;0.40;0.40;;;;;;;12.38;88.51;98198.72;4721385;30;20068;-90
2022/06/20 04:27:59;;;;;;;0.40;0.40;;;;;;;12.39;87.93;98188.75;4726177;30;20056;-89
2022/06/20 04:30:57;;;;;;;0.50;0.50;;;;;;;12.56;87.57;98189.22;4735192;30;20146;-89
2022/06/20 04:34:14;;;;;;;0.50;0.50;;;;;;;12.68;86.99;98175.34;4734618;30;20235;-90
2022/06/20 04:37:05;;;;;;;0.40;0.40;;;;;;;12.74;86.11;98198.63;4725595;30;20089;-88
2022/06/20 04:39:56;;;;;;;0.40;0.40;;;;;;;12.72;86.09;98222.44;4712513;30;20072;-89
2022/06/20 04:43:17;;;;;;;0.40;0.40;;;;;;;12.66;86.72;98210.00;4717130;30;20596;-89
2022/06/20 04:46:31;;;;;;;0.40;0.40;;;;;;;12.65;86.47;98209.19;4735215;30;20136;-88
2022/06/20 04:49:18;;;;;;;0.40;0.40;;;;;;;12.62;86.53;98212.47;4727704;30;20115;-89
2022/06/20 04:52:08;;;;;;;0.40;0.40;;;;;;;12.68;86.24;98195.09;4722294;30;20064;-91
2022/06/20 04:54:54;;;;;;;0.40;0.40;;;;;;;12.87;85.66;98179.03;4729811;30;20060;-90
2022/06/20 04:57:40;;;;;;;0.40;0.40;;;;;;;12.92;84.45;98167.38;4728288;30;20080;-88
2022/06/20 05:00:30;;;;;;;0.40;0.40;;;;;;;13.13;83.64;98178.88;4713898;30;20068;-89
2022/06/20 05:03:22;;;;;;;0.43;0.43;;;;;;;13.21;82.84;98195.34;4731460;30;20076;-90
2022/06/20 05:06:14;;;;;;;0.40;0.40;;;;;;;13.25;82.49;98195.59;4719207;30;20087;-89
2022/06/20 05:09:12;;;;;;;0.40;0.40;;;;;;;13.19;82.83;98199.41;4740850;30;20064;-88
2022/06/20 05:12:04;;;;;;;0.40;0.40;;;;;;;13.12;82.80;98207.88;4717556;30;20083;-91
2022/06/20 05:15:06;;;;;;;0.40;0.40;;;;;;;13.18;82.77;98216.78;4715010;30;20067;-89
2022/06/20 05:17:56;;;;;;;0.40;0.40;;;;;;;13.20;82.75;98218.13;4728176;30;20063;-84
2022/06/20 05:20:42;;;;;;;0.40;0.40;;;;;;;13.22;82.10;98224.06;4712716;30;20775;-88
2022/06/20 05:23:35;;;;;;;0.40;0.40;;;;;;;13.33;82.00;98245.72;4718362;30;20179;-84
2022/06/20 05:26:23;;;;;;;0.40;0.40;;;;;;;13.30;81.84;98254.41;4731613;30;20063;-88
2022/06/20 05:29:32;;;;;;;0.40;0.40;;;;;;;13.16;81.85;98241.44;4721485;30;20150;-92
2022/06/20 05:32:27;;;;;;;0.40;0.40;;;;;;;13.11;81.94;98246.06;4719010;30;20073;-92
2022/06/20 05:35:35;;;;;;;0.40;0.40;;;;;;;13.01;82.62;98264.03;4730350;30;20063;-93
2022/06/20 05:38:20;;;;;;;0.40;0.40;;;;;;;12.88;83.05;98271.91;4740479;30;20132;-92
2022/06/20 05:40:56;;;;;;;0.40;0.40;;;;;;;12.78;83.73;98295.22;4704572;30;20057;-92
2022/06/20 05:43:31;;;;;;;0.40;0.40;;;;;;;12.70;84.36;98303.94;4732480;30;20060;-87
2022/06/20 05:46:01;;;;;;;0.40;0.40;;;;;;;12.71;84.81;98280.38;4706123;30;20066;-90
2022/06/20 05:48:34;;;;;;;0.40;0.40;;;;;;;12.71;84.44;98251.41;4723033;30;20067;-87
2022/06/20 05:51:03;;;;;;;0.40;0.40;;;;;;;12.75;84.33;98273.31;4735015;30;20067;-85
2022/06/20 05:53:38;;;;;;;0.40;0.40;;;;;;;12.75;84.68;98300.41;4729319;30;20484;-89
2022/06/20 05:56:21;;;;;;;0.40;0.40;;;;;;;12.75;84.75;98312.03;4708229;30;20049;-89
2022/06/20 05:58:49;;;;;;;0.40;0.40;;;;;;;12.74;85.09;98315.03;4720592;30;20086;-89
2022/06/20 06:01:25;;;;;;;0.40;0.40;;;;;;;12.76;85.61;98296.59;4734517;30;20071;-87
2022/06/20 06:04:11;;;;;;;0.40;0.40;;;;;;;12.72;85.60;98279.28;4715045;30;20099;-90
2022/06/20 06:06:50;;;;;;;0.40;0.40;;;;;;;12.75;85.70;98276.03;4717877;30;20067;-87
2022/06/20 06:09:42;;;;;;;0.40;0.40;;;;;;;12.79;85.69;98269.78;4719057;30;20141;-88
2022/06/20 06:12:14;;;;;;;0.40;0.40;;;;;;;12.88;84.98;98278.13;4715540;30;20437;-88
2022/06/20 06:14:56;;;;;;;0.40;0.40;;;;;;;12.93;84.89;98264.56;4729246;30;20068;-84
2022/06/20 06:17:39;;;;;;;0.40;0.40;;;;;;;13.06;84.43;98262.34;4724024;30;20057;-86
2022/06/20 06:20:17;;;;;;;0.40;0.40;;;;;;;13.19;84.04;98256.31;4702410;30;20064;-85
2022/06/20 06:22:46;;;;;;;0.40;0.40;;;;;;;13.41;83.66;98228.84;4720295;30;20072;-84
2022/06/20 06:25:24;;;;;;;0.47;0.47;;;;;;;13.79;83.10;98229.91;4731651;30;20060;-84
2022/06/20 06:27:57;;;;;;;0.40;0.40;;;;;;;13.99;80.87;98236.25;4717334;30;20052;-85
2022/06/20 06:30:30;;;;;;;0.40;0.40;;;;;;;14.00;79.77;98233.28;4718082;30;20595;-90
2022/06/20 06:33:07;;;;;;;0.40;0.40;;;;;;;14.26;79.07;98222.97;4735716;30;20565;-87
2022/06/20 06:35:41;;;;;;;0.50;0.50;;;;;;;14.44;77.71;98237.69;4746110;30;20080;-90
2022/06/20 06:38:27;;;;;;;0.40;0.40;;;;;;;14.27;77.31;98248.19;4750603;30;20041;-93
2022/06/20 06:40:56;;;;;;;0.40;0.40;;;;;;;14.17;78.06;98259.16;4742099;30;20057;-94
2022/06/20 06:43:29;;;;;;;0.40;0.40;;;;;;;14.23;78.00;98258.81;4755661;30;20036;-91
2022/06/20 06:45:59;;;;;;;0.40;0.40;;;;;;;14.36;77.84;98251.91;4726586;30;20041;-88
2022/06/20 06:48:47;;;;;;;0.40;0.40;;;;;;;14.54;76.67;98253.09;4751532;30;20033;-93
2022/06/20 06:51:56;;;;;;;0.40;0.40;;;;;;;14.77;75.34;98243.31;4723698;30;20073;-85
2022/06/20 06:54:41;;;;;;;0.40;0.40;;;;;;;14.99;74.45;98252.81;4695041;30;20076;-85
2022/06/20 06:57:25;;;;;;;0.50;0.50;;;;;;;15.21;73.52;98261.22;4736656;30;20402;-84
2022/06/20 07:00:02;;;;;;;0.40;0.40;;;;;;;15.30;72.77;98266.81;4736160;30;20154;-86
2022/06/20 07:02:41;;;;;;;0.40;0.40;;;;;;;15.34;72.15;98273.28;4713173;30;20124;-87
2022/06/20 07:05:15;;;;;;;0.50;0.50;;;;;;;15.55;71.75;98274.63;4702783;30;20434;-86
2022/06/20 07:08:01;;;;;;;0.50;0.50;;;;;;;16.02;70.37;98278.25;4725423;30;20076;-89
2022/06/20 07:10:59;;;;;;;0.40;0.40;;;;;;;16.57;68.19;98263.13;4726416;30;20053;-92
2022/06/20 07:13:54;;;;;;;0.45;0.45;;;;;;;16.33;67.26;98266.84;4736944;30;20071;-92
2022/06/20 07:16:29;;;;;;;0.40;0.40;;;;;;;16.31;67.61;98277.22;4731281;30;20522;-92
2022/06/20 07:18:58;;;;;;;0.50;0.50;;;;;;;16.35;67.15;98282.88;4728343;30;20060;-93
2022/06/20 07:21:29;;;;;;;0.50;0.50;;;;;;;16.35;66.66;98278.22;4721606;30;20120;-89
2022/06/20 07:23:58;;;;;;;0.40;0.40;;;;;;;16.35;66.21;98293.75;4722351;30;20069;-90
2022/06/20 07:26:30;;;;;;;0.50;0.50;;;;;;;16.50;65.42;98295.41;4720462;30;20084;-85
2022/06/20 07:29:08;;;;;;;0.50;0.50;;;;;;;16.57;64.07;98302.06;4733235;30;20104;-84
2022/06/20 07:31:40;;;;;;;0.50;0.50;;;;;;;16.61;63.95;98307.72;4716519;30;20593;-87
2022/06/20 07:34:12;;;;;;;0.43;0.43;;;;;;;16.27;65.50;98297.97;4732798;30;20088;-89
2022/06/20 07:36:52;;;;;;;0.50;0.50;;;;;;;16.34;65.89;98303.84;4719190;30;20085;-87
2022/06/20 07:39:52;;;;;;;0.50;0.50;;;;;;;16.50;65.08;98312.53;4725371;30;20062;-90
2022/06/20 07:42:26;;;;;;;0.50;0.50;;;;;;;16.75;63.55;98305.81;4715706;30;20076;-90
2022/06/20 07:44:59;;;;;;;0.40;0.40;;;;;;;16.60;62.93;98282.41;4722020;30;20069;-93
2022/06/20 07:47:53;;;;;;;0.40;0.40;;;;;;;16.59;62.78;98297.13;4726320;30;20477;-91
2022/06/20 07:50:32;;;;;;;0.40;0.40;;;;;;;16.31;64.20;98290.84;4732942;30;20053;-90
2022/06/20 07:53:15;;;;;;;0.50;0.50;;;;;;;16.50;63.96;98276.34;4732166;30;20147;-90
2022/06/20 07:55:49;;;;;;;0.60;0.60;;;;;;;16.76;62.88;98280.19;4717105;30;20558;-90
2022/06/20 07:58:26;;;;;;;0.40;0.40;;;;;;;16.84;62.25;98281.44;4730340;30;20060;-87
2022/06/20 08:00:53;;;;;;;0.50;0.50;;;;;;;16.75;63.12;98286.75;4717321;30;20099;-88
2022/06/20 08:03:38;;;;;;;0.60;0.60;;;;;;;17.05;61.27;98279.09;4765029;24;20060;-90
2022/06/20 08:06:14;;;;;;;0.60;0.60;;;;;;;17.42;60.07;98288.09;4727765;30;20066;-92
2022/06/20 08:09:07;;;;;;;0.60;0.60;;;;;;;17.71;58.03;98285.81;4755365;30;20076;-91
2022/06/20 08:12:03;;;;;;;0.40;0.40;;;;;;;17.17;60.39;98293.03;4772797;30;20544;-89
2022/06/20 08:14:50;;;;;;;0.70;0.70;;;;;;;17.30;60.55;98305.81;4738439;30;20512;-89
2022/06/20 08:17:17;;;;;;;0.50;0.50;;;;;;;17.52;58.89;98320.63;4752423;30;20059;-91
2022/06/20 08:19:48;;;;;;;0.50;0.50;;;;;;;17.53;59.08;98316.78;4750978;30;20056;-90
2022/06/20 08:22:29;;;;;;;0.60;0.60;;;;;;;17.91;57.72;98300.13;4753678;30;20083;-89
2022/06/20 08:25:01;;;;;;;0.50;0.50;;;;;;;18.24;56.81;98314.31;4765416;30;20160;-89
2022/06/20 08:27:45;;;;;;;0.40;0.40;;;;;;;18.03;56.17;98297.66;4767624;30;20064;-89
2022/06/20 08:30:16;;;;;;;0.40;0.40;;;;;;;17.92;56.86;98301.72;4770669;30;20059;-91
2022/06/20 08:32:49;;;;;;;0.60;0.60;;;;;;;18.32;55.83;98297.19;4773981;30;20063;-90
2022/06/20 08:35:23;;;;;;;0.40;0.40;;;;;;;18.53;54.69;98300.16;4756510;30;20110;-90
2022/06/20 08:38:05;;;;;;;0.50;0.50;;;;;;;18.38;55.51;98308.78;4754270;30;20075;-90
2022/06/20 08:41:00;;;;;;;0.52;0.52;;;;;;;18.75;54.94;98313.00;4766294;30;20075;-90
2022/06/20 08:43:33;;;;;;;0.40;0.40;;;;;;;19.45;53.09;98314.03;4751867;30;20086;-88
2022/06/20 08:46:10;;;;;;;0.40;0.40;;;;;;;19.14;52.99;98314.13;4751800;30;20513;-89
2022/06/20 08:48:41;;;;;;;0.70;0.70;;;;;;;19.62;52.44;98310.53;4765072;30;20056;-91
2022/06/20 08:51:23;;;;;;;0.50;0.50;;;;;;;19.63;50.83;98294.91;4751389;30;20064;-90
2022/06/20 08:54:15;;;;;;;0.40;0.40;;;;;;;19.34;52.23;98296.28;4751540;30;20060;-89
2022/06/20 08:56:59;;;;;;;0.57;0.57;;;;;;;19.79;51.39;98298.78;4773523;29;20428;-91
2022/06/20 09:00:00;;;;;;;0.40;0.40;;;;;;;20.06;50.70;98294.09;4766809;30;20052;-89
2022/06/20 09:02:52;;;;;;;0.50;0.50;;;;;;;19.83;50.59;98291.53;4751350;30;20154;-90
2022/06/20 09:05:58;;;;;;;0.50;0.50;;;;;;;19.28;51.43;98314.78;4739078;30;20052;-90
2022/06/20 09:08:41;;;;;;;0.50;0.50;;;;;;;19.22;51.13;98298.88;4755719;30;20626;-90
2022/06/20 09:11:55;;;;;;;0.50;0.50;;;;;;;19.49;51.51;98298.56;4750448;30;20056;-91
2022/06/20 09:14:25;;;;;;;0.45;0.45;;;;;;;19.32;52.74;98298.56;4751385;30;20158;-90
2022/06/20 09:17:01;;;;;;;0.40;0.40;;;;;;;19.65;51.44;98289.91;4752548;30;20131;-90
2022/06/20 09:19:59;;;;;;;0.30;0.30;;;;;;;19.77;50.81;98287.34;4737642;30;20197;-88
2022/06/20 09:22:54;;;;;;;0.30;0.30;;;;;;;19.77;51.33;98305.72;4754072;30;20079;-90
2022/06/20 09:25:37;;;;;;;0.30;0.30;;;;;;;19.03;53.48;98301.88;4723288;30;20049;-91
2022/06/20 09:28:14;;;;;;;0.30;0.30;;;;;;;18.78;55.46;98295.19;4744434;30;20053;-89
2022/06/20 09:31:09;;;;;;;0.40;0.40;;;;;;;18.92;52.74;98287.69;4722675;30;20076;-90
2022/06/20 09:33:54;;;;;;;0.40;0.40;;;;;;;19.23;52.22;98278.59;4733743;30;20064;-91
2022/06/20 09:36:43;;;;;;;0.40;0.40;;;;;;;19.68;50.54;98278.34;4749655;30;20598;-88
2022/06/20 09:40:01;;;;;;;0.70;0.70;;;;;;;20.67;48.06;98283.81;4729126;30;20448;-88
2022/06/20 09:43:09;;;;;;;0.50;0.50;;;;;;;21.03;48.06;98289.94;4729535;30;20080;-89
2022/06/20 09:45:49;;;;;;;0.40;0.40;;;;;;;20.70;49.12;98291.38;4731808;30;20118;-88
2022/06/20 09:48:27;;;;;;;0.40;0.40;;;;;;;20.05;50.88;98284.25;4706326;30;20091;-88
2022/06/20 09:51:33;;;;;;;0.40;0.40;;;;;;;20.11;51.76;98285.72;4729945;30;20056;-88
2022/06/20 09:54:35;;;;;;;0.40;0.40;;;;;;;19.68;52.98;98298.31;4728263;30;20059;-89
2022/06/20 09:57:46;;;;;;;0.32;0.32;;;;;;;19.08;55.58;98292.72;4706213;30;20115;-89
2022/06/20 10:00:22;;;;;;;0.40;0.40;;;;;;;18.78;56.72;98279.56;4700734;30;20151;-89
2022/06/20 10:02:55;;;;;;;0.30;0.30;;;;;;;18.60;56.83;98306.00;4686195;30;20068;-90
2022/06/20 10:05:37;;;;;;;0.30;0.30;;;;;;;18.26;58.17;98292.97;4709128;30;20128;-88
2022/06/20 10:08:15;;;;;;;0.30;0.30;;;;;;;18.19;58.29;98295.34;4696343;30;20057;-88
2022/06/20 10:10:45;;;;;;;0.30;0.30;;;;;;;18.04;58.65;98291.06;4729113;30;20548;-90
2022/06/20 10:13:30;;;;;;;0.40;0.40;;;;;;;17.90;59.60;98298.50;4714642;30;20084;-92
2022/06/20 10:16:12;;;;;;;0.40;0.40;;;;;;;17.88;60.02;98292.56;4715655;30;20221;-90
2022/06/20 10:18:51;;;;;;;0.30;0.30;;;;;;;17.91;60.61;98291.94;4712598;30;20266;-91
2022/06/20 10:21:39;;;;;;;0.30;0.30;;;;;;;17.82;60.87;98304.69;4715337;30;20426;-89
2022/06/20 10:24:28;;;;;;;0.35;0.35;;;;;;;17.70;61.76;98306.03;4695880;30;20068;-90
2022/06/20 10:27:05;;;;;;;0.40;0.40;;;;;;;17.82;61.80;98294.59;4716642;30;20170;-85
2022/06/20 10:29:50;;;;;;;0.30;0.30;;;;;;;17.69;61.45;98307.13;4702527;30;20147;-87
2022/06/20 10:32:21;;;;;;;;;;;;;;;17.65;61.83;98317.06;4718363;30;20076;-90
2022/06/20 10:35:15;;;;;;;0.40;0.40;;;;;;;17.63;61.33;98319.28;4743156;30;19934;-91
2022/06/20 10:38:00;;;;;;;0.35;0.35;;;;;;;17.36;62.60;98317.41;4735028;30;20136;-91
2022/06/20 10:40:52;;;;;;;0.32;0.32;;;;;;;17.38;63.11;98319.84;4741245;30;20074;-90
2022/06/20 10:43:44;;;;;;;0.40;0.40;;;;;;;17.35;62.99;98313.09;4754265;30;20056;-90
2022/06/20 10:46:25;;;;;;;0.40;0.40;;;;;;;17.27;63.34;98320.06;4743716;30;20152;-90
2022/06/20 10:49:15;;;;;;;0.30;0.30;;;;;;;17.36;63.63;98316.63;4769424;30;20064;-91
2022/06/20 10:52:13;;;;;;;0.40;0.40;;;;;;;17.48;63.40;98320.44;4744409;30;20060;-89
2022/06/20 10:54:59;;;;;;;0.40;0.40;;;;;;;17.47;63.16;98323.44;4771423;30;20079;-89
2022/06/20 10:57:59;;;;;;;0.32;0.32;;;;;;;17.50;63.27;98306.50;4769967;30;20067;-89
2022/06/20 11:00:29;;;;;;;0.30;0.30;;;;;;;17.50;63.09;98304.56;4757448;30;20082;-89
2022/06/20 11:03:06;;;;;;;0.30;0.30;;;;;;;17.41;63.30;98309.13;4758196;30;20064;-92
2022/06/20 11:05:52;;;;;;;0.40;0.40;;;;;;;17.37;63.94;98304.59;4735952;30;20551;-91
2022/06/20 11:08:41;;;;;;;0.30;0.30;;;;;;;17.44;64.09;98308.50;4755825;30;20056;-91
2022/06/20 11:11:20;;;;;;;0.30;0.30;;;;;;;17.46;64.04;98306.28;4754604;30;20052;-90
2022/06/20 11:13:50;;;;;;;0.30;0.30;;;;;;;17.42;64.22;98310.75;4754919;30;20064;-89
2022/06/20 11:16:48;;;;;;;0.30;0.30;;;;;;;17.42;64.17;98299.84;4753271;30;20056;-89
2022/06/20 11:19:26;;;;;;;0.30;0.30;;;;;;;17.12;64.07;98298.59;4750438;30;20060;-90
2022/06/20 11:22:25;;;;;;;0.40;0.40;;;;;;;16.97;64.30;98294.25;4751936;30;20056;-89
2022/06/20 11:25:14;;;;;;;0.30;0.30;;;;;;;16.89;65.34;98297.69;4751425;30;20060;-89
2022/06/20 11:28:08;;;;;;;0.40;0.40;;;;;;;16.99;65.86;98302.09;4726312;30;20066;-92
2022/06/20 11:30:47;;;;;;;0.40;0.40;;;;;;;16.79;67.06;98304.16;4752904;30;20110;-91
2022/06/20 11:36:50;;;;;;;0.40;0.40;;;;;;;16.66;67.43;98303.00;4757206;30;20140;-88
2022/06/20 11:39:24;;;;;;;0.40;0.40;;;;;;;16.61;68.44;98313.16;4753041;30;20485;-90
2022/06/20 11:41:55;;;;;;;0.38;0.38;;;;;;;16.65;68.29;98309.53;4743955;30;20468;-90
2022/06/20 11:44:28;;;;;;;0.40;0.40;;;;;;;16.52;68.38;98304.09;4756899;30;20060;-92
2022/06/20 11:47:33;;;;;;;0.40;0.40;;;;;;;16.58;68.56;98309.13;4763652;30;20060;-91
2022/06/20 11:50:30;;;;;;;0.40;0.40;;;;;;;16.46;68.84;98296.00;4760962;30;20124;-88
2022/06/20 11:53:22;;;;;;;0.40;0.40;;;;;;;16.54;69.07;98293.69;4431815;30;10001394;-91
2022/06/20 11:56:00;;;;;;;0.40;0.40;;;;;;;16.57;68.28;98301.25;4762930;30;20063;-92
2022/06/20 11:58:48;;;;;;;0.40;0.40;;;;;;;16.48;68.50;98303.84;4776795;30;20067;-91
2022/06/20 12:01:23;;;;;;;0.30;0.30;;;;;;;16.45;68.39;98296.28;4753269;30;20059;-89
2022/06/20 12:04:18;;;;;;;0.40;0.40;;;;;;;16.52;68.90;98306.81;4755035;30;20657;-91
2022/06/20 12:07:06;;;;;;;0.32;0.32;;;;;;;16.26;69.13;98290.94;4747468;30;20600;-89
2022/06/20 12:09:48;;;;;;;0.40;0.40;;;;;;;16.12;69.39;98306.41;4746106;30;20092;-89
2022/06/20 12:12:47;;;;;;;0.35;0.35;;;;;;;16.10;69.63;98297.72;4753845;30;20064;-89
2022/06/20 12:15:37;;;;;;;0.40;0.40;;;;;;;15.95;69.74;98299.59;4739416;30;20052;-91
2022/06/20 12:18:33;;;;;;;0.40;0.40;;;;;;;15.98;70.16;98318.06;4748181;30;20052;-90
2022/06/20 12:24:07;;;;;;;0.40;0.40;;;;;;;15.67;71.29;98305.97;4763170;30;20052;-90
2022/06/20 12:26:42;;;;;;;0.40;0.40;;;;;;;15.60;71.42;98304.44;4744120;30;20059;-88
2022/06/20 12:29:15;;;;;;;0.40;0.40;;;;;;;15.70;71.62;98321.75;4744734;30;20048;-91
2022/06/20 12:31:45;;;;;;;0.40;0.40;;;;;;;15.73;71.34;98326.63;4754073;30;20070;-90
2022/06/20 12:34:49;;;;;;;0.30;0.30;;;;;;;15.73;71.53;98334.78;4757394;30;20168;-89
2022/06/20 12:37:23;;;;;;;0.30;0.30;;;;;;;15.65;71.78;98319.91;4741549;30;20049;-91
2022/06/20 12:40:11;;;;;;;0.38;0.38;;;;;;;15.64;72.09;98325.63;4757492;30;20115;-90
2022/06/20 12:43:06;;;;;;;0.50;0.50;;;;;;;15.76;71.79;98326.03;4760276;30;20074;-90
2022/06/20 12:46:01;;;;;;;0.40;0.40;;;;;;;15.81;72.08;98337.63;4756769;30;20072;-89
2022/06/20 12:48:52;;;;;;;0.40;0.40;;;;;;;15.86;71.88;98341.38;4759433;30;20063;-92
2022/06/20 12:51:46;;;;;;;0.40;0.40;;;;;;;16.02;71.61;98335.38;4756616;30;20133;-90
2022/06/20 12:54:32;;;;;;;0.40;0.40;;;;;;;16.12;71.16;98339.88;4737951;30;20174;-91
2022/06/20 12:57:17;;;;;;;0.40;0.40;;;;;;;16.17;71.22;98344.44;4751199;30;20490;-90
2022/06/20 12:59:57;;;;;;;0.40;0.40;;;;;;;16.26;70.63;98350.81;4737352;30;20063;-90
2022/06/20 13:02:39;;;;;;;0.40;0.40;;;;;;;16.60;70.16;98342.31;4748012;30;20068;-93
2022/06/20 13:05:30;;;;;;;0.40;0.40;;;;;;;16.90;69.13;98346.44;4734898;30;20053;-90
2022/06/20 13:08:24;;;;;;;0.40;0.40;;;;;;;17.02;68.66;98348.66;4732289;30;20084;-91
2022/06/20 13:11:16;;;;;;;0.30;0.30;;;;;;;16.97;68.68;98356.94;4732884;30;20156;-90